sensor_id;sensor_type;location;lat;lon;timestamp;pressure;altitude;pressure_sealevel;temperature;humidity
73633;BME280;61927;50.080;14.418;2022-09-17T00:01:08;98557.97;;;10.67;74.19
73633;BME280;61927;50.080;14.418;2022-09-17T00:03:34;98554.47;;;10.66;73.78
73633;BME280;61927;50.080;14.418;2022-09-17T00:06:06;98546.28;;;10.70;73.34
73633;BME280;61927;50.080;14.418;2022-09-17T00:08:34;98554.59;;;10.65;73.35
73633;BME280;61927;50.080;14.418;2022-09-17T00:11:14;98554.09;;;10.60;73.63
73633;BME280;61927;50.080;14.418;2022-09-17T00:13:41;98560.38;;;10.59;73.29
73633;BME280;61927;50.080;14.418;2022-09-17T00:16:07;98556.03;;;10.58;73.65
73633;BME280;61927;50.080;14.418;2022-09-17T00:18:33;98562.41;;;10.55;73.63
73633;BME280;61927;50.080;14.418;2022-09-17T00:21:01;98567.09;;;10.52;73.91
73633;BME280;61927;50.080;14.418;2022-09-17T00:23:27;98566.59;;;10.47;73.78
73633;BME280;61927;50.080;14.418;2022-09-17T00:25:53;98562.25;;;10.46;74.15
73633;BME280;61927;50.080;14.418;2022-09-17T00:28:19;98560.34;;;10.48;73.69
73633;BME280;61927;50.080;14.418;2022-09-17T00:30:45;98563.09;;;10.46;73.63
73633;BME280;61927;50.080;14.418;2022-09-17T00:33:13;98567.44;;;10.47;74.07
73633;BME280;61927;50.080;14.418;2022-09-17T00:35:39;98564.91;;;10.46;73.59
73633;BME280;61927;50.080;14.418;2022-09-17T00:38:04;98570.56;;;10.41;73.72
73633;BME280;61927;50.080;14.418;2022-09-17T00:40:30;98569.94;;;10.38;73.57
73633;BME280;61927;50.080;14.418;2022-09-17T00:42:55;98563.06;;;10.35;73.91
73633;BME280;61927;50.080;14.418;2022-09-17T00:45:22;98567.28;;;10.38;73.40
73633;BME280;61927;50.080;14.418;2022-09-17T00:47:59;98561.03;;;10.39;73.17
73633;BME280;61927;50.080;14.418;2022-09-17T00:50:33;98557.66;;;10.37;73.33
73633;BME280;61927;50.080;14.418;2022-09-17T00:53:08;98555.84;;;10.37;72.82
73633;BME280;61927;50.080;14.418;2022-09-17T00:55:37;98556.34;;;10.42;72.73
73633;BME280;61927;50.080;14.418;2022-09-17T00:58:05;98564.19;;;10.44;72.75
73633;BME280;61927;50.080;14.418;2022-09-17T01:00:32;98568.63;;;10.43;72.45
73633;BME280;61927;50.080;14.418;2022-09-17T01:02:58;98565.25;;;10.41;73.05
73633;BME280;61927;50.080;14.418;2022-09-17T01:05:45;98561.63;;;10.42;72.15
73633;BME280;61927;50.080;14.418;2022-09-17T01:08:33;98568.75;;;10.42;72.50
73633;BME280;61927;50.080;14.418;2022-09-17T01:19:37;98564.13;;;10.32;71.79
73633;BME280;61927;50.080;14.418;2022-09-17T01:30:58;98570.63;;;10.28;71.78
73633;BME280;61927;50.080;14.418;2022-09-17T01:33:38;98574.00;;;10.30;72.04
73633;BME280;61927;50.080;14.418;2022-09-17T01:41:58;98583.78;;;10.30;71.60
73633;BME280;61927;50.080;14.418;2022-09-17T01:44:52;98590.38;;;10.24;71.98
73633;BME280;61927;50.080;14.418;2022-09-17T01:47:29;98585.31;;;10.21;72.59
73633;BME280;61927;50.080;14.418;2022-09-17T01:50:02;98587.09;;;10.21;72.42
73633;BME280;61927;50.080;14.418;2022-09-17T01:52:32;98589.75;;;10.21;72.35
73633;BME280;61927;50.080;14.418;2022-09-17T01:55:01;98589.09;;;10.17;72.92
73633;BME280;61927;50.080;14.418;2022-09-17T01:57:43;98580.53;;;10.14;72.59
73633;BME280;61927;50.080;14.418;2022-09-17T02:00:12;98574.84;;;10.07;72.88
73633;BME280;61927;50.080;14.418;2022-09-17T02:08:50;98582.44;;;9.88;73.65
73633;BME280;61927;50.080;14.418;2022-09-17T02:11:18;98581.19;;;9.81;73.78
73633;BME280;61927;50.080;14.418;2022-09-17T02:16:20;98591.06;;;9.79;73.62
73633;BME280;61927;50.080;14.418;2022-09-17T02:24:21;98584.81;;;9.80;73.25
73633;BME280;61927;50.080;14.418;2022-09-17T02:26:59;98587.56;;;9.78;73.31
73633;BME280;61927;50.080;14.418;2022-09-17T02:29:41;98577.91;;;9.77;73.34
73633;BME280;61927;50.080;14.418;2022-09-17T02:32:08;98590.84;;;9.82;73.02
73633;BME280;61927;50.080;14.418;2022-09-17T02:34:34;98590.09;;;9.80;72.63
73633;BME280;61927;50.080;14.418;2022-09-17T02:37:00;98585.53;;;9.82;73.11
73633;BME280;61927;50.080;14.418;2022-09-17T02:39:27;98576.63;;;9.83;72.72
73633;BME280;61927;50.080;14.418;2022-09-17T02:53:01;98586.59;;;9.79;72.00
73633;BME280;61927;50.080;14.418;2022-09-17T02:55:58;98587.69;;;9.77;72.55
73633;BME280;61927;50.080;14.418;2022-09-17T02:58:34;98578.66;;;9.79;72.01
73633;BME280;61927;50.080;14.418;2022-09-17T03:01:06;98585.44;;;9.83;72.21
73633;BME280;61927;50.080;14.418;2022-09-17T03:03:38;98579.69;;;9.89;72.12
73633;BME280;61927;50.080;14.418;2022-09-17T03:06:05;98583.34;;;9.99;71.14
73633;BME280;61927;50.080;14.418;2022-09-17T03:08:34;98585.44;;;10.07;70.97
73633;BME280;61927;50.080;14.418;2022-09-17T03:11:02;98580.19;;;10.18;70.73
73633;BME280;61927;50.080;14.418;2022-09-17T03:13:29;98577.00;;;10.26;69.99
73633;BME280;61927;50.080;14.418;2022-09-17T03:15:55;98567.88;;;10.30;69.48
73633;BME280;61927;50.080;14.418;2022-09-17T03:18:22;98561.97;;;10.38;69.35
73633;BME280;61927;50.080;14.418;2022-09-17T03:20:48;98563.69;;;10.39;68.89
73633;BME280;61927;50.080;14.418;2022-09-17T03:23:13;98560.78;;;10.42;68.80
73633;BME280;61927;50.080;14.418;2022-09-17T03:25:39;98558.16;;;10.42;68.57
73633;BME280;61927;50.080;14.418;2022-09-17T03:28:05;98560.56;;;10.45;68.46
73633;BME280;61927;50.080;14.418;2022-09-17T03:30:30;98552.59;;;10.45;68.36
73633;BME280;61927;50.080;14.418;2022-09-17T03:32:56;98548.03;;;10.47;68.08
73633;BME280;61927;50.080;14.418;2022-09-17T03:35:21;98555.63;;;10.51;67.75
73633;BME280;61927;50.080;14.418;2022-09-17T03:37:47;98556.38;;;10.53;68.30
73633;BME280;61927;50.080;14.418;2022-09-17T03:40:13;98551.69;;;10.57;67.85
73633;BME280;61927;50.080;14.418;2022-09-17T03:42:38;98547.09;;;10.59;67.09
73633;BME280;61927;50.080;14.418;2022-09-17T03:45:04;98544.94;;;10.64;67.20
73633;BME280;61927;50.080;14.418;2022-09-17T03:47:30;98546.63;;;10.65;67.94
73633;BME280;61927;50.080;14.418;2022-09-17T03:49:55;98544.94;;;10.64;67.81
73633;BME280;61927;50.080;14.418;2022-09-17T03:52:21;98534.31;;;10.64;67.93
73633;BME280;61927;50.080;14.418;2022-09-17T03:54:46;98538.56;;;10.66;67.36
73633;BME280;61927;50.080;14.418;2022-09-17T03:57:12;98534.81;;;10.69;67.43
73633;BME280;61927;50.080;14.418;2022-09-17T03:59:38;98531.09;;;10.72;67.65
73633;BME280;61927;50.080;14.418;2022-09-17T04:02:04;98521.31;;;10.72;66.99
73633;BME280;61927;50.080;14.418;2022-09-17T04:04:30;98526.50;;;10.74;67.45
73633;BME280;61927;50.080;14.418;2022-09-17T04:06:55;98530.00;;;10.74;67.19
73633;BME280;61927;50.080;14.418;2022-09-17T04:09:21;98531.47;;;10.78;67.76
73633;BME280;61927;50.080;14.418;2022-09-17T04:11:46;98530.38;;;10.81;66.94
73633;BME280;61927;50.080;14.418;2022-09-17T04:14:12;98533.88;;;10.81;66.92
73633;BME280;61927;50.080;14.418;2022-09-17T04:16:37;98541.38;;;10.87;66.96
73633;BME280;61927;50.080;14.418;2022-09-17T04:19:03;98537.88;;;10.87;66.85
73633;BME280;61927;50.080;14.418;2022-09-17T04:21:28;98530.63;;;10.89;66.63
73633;BME280;61927;50.080;14.418;2022-09-17T04:23:54;98532.56;;;10.87;67.37
73633;BME280;61927;50.080;14.418;2022-09-17T04:26:19;98523.13;;;10.83;67.70
73633;BME280;61927;50.080;14.418;2022-09-17T04:28:45;98530.72;;;10.76;67.59
73633;BME280;61927;50.080;14.418;2022-09-17T04:31:10;98525.78;;;10.72;68.10
73633;BME280;61927;50.080;14.418;2022-09-17T04:33:36;98527.59;;;10.71;68.48
73633;BME280;61927;50.080;14.418;2022-09-17T04:36:02;98524.69;;;10.74;67.84
73633;BME280;61927;50.080;14.418;2022-09-17T04:38:28;98521.31;;;10.72;66.92
73633;BME280;61927;50.080;14.418;2022-09-17T04:40:53;98520.47;;;10.72;67.66
73633;BME280;61927;50.080;14.418;2022-09-17T04:43:21;98517.81;;;10.72;67.21
73633;BME280;61927;50.080;14.418;2022-09-17T04:45:48;98515.16;;;10.72;67.42
73633;BME280;61927;50.080;14.418;2022-09-17T04:48:15;98511.31;;;10.76;67.26
73633;BME280;61927;50.080;14.418;2022-09-17T04:50:41;98516.38;;;10.79;66.94
73633;BME280;61927;50.080;14.418;2022-09-17T04:53:06;98514.47;;;10.81;66.92
73633;BME280;61927;50.080;14.418;2022-09-17T04:55:32;98517.09;;;10.81;66.54
73633;BME280;61927;50.080;14.418;2022-09-17T04:57:57;98524.22;;;10.80;66.66
73633;BME280;61927;50.080;14.418;2022-09-17T05:00:23;98511.91;;;10.79;66.53
73633;BME280;61927;50.080;14.418;2022-09-17T05:02:51;98517.22;;;10.79;66.89
73633;BME280;61927;50.080;14.418;2022-09-17T05:05:17;98510.22;;;10.78;66.53
73633;BME280;61927;50.080;14.418;2022-09-17T05:07:43;98510.22;;;10.78;66.66
73633;BME280;61927;50.080;14.418;2022-09-17T05:10:09;98513.00;;;10.77;66.32
73633;BME280;61927;50.080;14.418;2022-09-17T05:12:35;98508.06;;;10.72;66.77
73633;BME280;61927;50.080;14.418;2022-09-17T05:15:02;98512.03;;;10.78;66.70
73633;BME280;61927;50.080;14.418;2022-09-17T05:17:27;98510.84;;;10.82;66.37
73633;BME280;61927;50.080;14.418;2022-09-17T05:19:53;98496.84;;;10.80;66.45
73633;BME280;61927;50.080;14.418;2022-09-17T05:22:19;98506.25;;;10.84;66.61
73633;BME280;61927;50.080;14.418;2022-09-17T05:24:45;98501.78;;;10.84;66.41
73633;BME280;61927;50.080;14.418;2022-09-17T05:27:11;98493.22;;;10.81;66.23
73633;BME280;61927;50.080;14.418;2022-09-17T05:29:37;98495.53;;;10.85;66.21
73633;BME280;61927;50.080;14.418;2022-09-17T05:32:03;98494.06;;;10.81;66.44
73633;BME280;61927;50.080;14.418;2022-09-17T05:34:29;98484.53;;;10.79;66.70
73633;BME280;61927;50.080;14.418;2022-09-17T05:36:54;98496.84;;;10.80;66.70
73633;BME280;61927;50.080;14.418;2022-09-17T05:39:20;98510.09;;;10.80;66.31
73633;BME280;61927;50.080;14.418;2022-09-17T05:41:53;98501.78;;;10.84;66.24
73633;BME280;61927;50.080;14.418;2022-09-17T05:44:19;98505.16;;;10.86;66.48
73633;BME280;61927;50.080;14.418;2022-09-17T05:46:45;98496.84;;;10.91;66.18
73633;BME280;61927;50.080;14.418;2022-09-17T05:49:11;98506.03;;;10.98;66.07
73633;BME280;61927;50.080;14.418;2022-09-17T05:51:37;98498.66;;;11.02;66.18
73633;BME280;61927;50.080;14.418;2022-09-17T05:54:03;98509.75;;;11.07;66.04
73633;BME280;61927;50.080;14.418;2022-09-17T05:56:29;98508.19;;;11.15;65.87
73633;BME280;61927;50.080;14.418;2022-09-17T05:58:55;98513.13;;;11.20;65.68
73633;BME280;61927;50.080;14.418;2022-09-17T06:01:21;98508.44;;;11.23;65.41
73633;BME280;61927;50.080;14.418;2022-09-17T06:03:47;98516.28;;;11.25;65.27
73633;BME280;61927;50.080;14.418;2022-09-17T06:06:12;98521.22;;;11.29;65.34
73633;BME280;61927;50.080;14.418;2022-09-17T06:08:38;98522.91;;;11.30;65.47
73633;BME280;61927;50.080;14.418;2022-09-17T06:11:07;98537.50;;;11.36;65.18
73633;BME280;61927;50.080;14.418;2022-09-17T06:13:33;98534.84;;;11.36;65.11
73633;BME280;61927;50.080;14.418;2022-09-17T06:16:00;98538.00;;;11.41;65.29
73633;BME280;61927;50.080;14.418;2022-09-17T06:18:27;98535.09;;;11.44;65.11
73633;BME280;61927;50.080;14.418;2022-09-17T06:21:01;98541.59;;;11.51;64.68
73633;BME280;61927;50.080;14.418;2022-09-17T06:23:27;98554.75;;;11.53;64.70
73633;BME280;61927;50.080;14.418;2022-09-17T06:25:57;98559.22;;;11.52;65.12
73633;BME280;61927;50.080;14.418;2022-09-17T06:28:24;98562.72;;;11.53;64.92
73633;BME280;61927;50.080;14.418;2022-09-17T06:30:50;98574.56;;;11.49;65.22
73633;BME280;61927;50.080;14.418;2022-09-17T06:33:20;98588.09;;;11.46;65.36
73633;BME280;61927;50.080;14.418;2022-09-17T06:35:46;98588.94;;;11.46;65.14
73633;BME280;61927;50.080;14.418;2022-09-17T06:38:12;98596.78;;;11.48;65.67
73633;BME280;61927;50.080;14.418;2022-09-17T06:40:37;98594.97;;;11.48;65.21
73633;BME280;61927;50.080;14.418;2022-09-17T06:43:03;98600.06;;;11.40;65.70
73633;BME280;61927;50.080;14.418;2022-09-17T06:45:29;98611.03;;;11.36;65.93
73633;BME280;61927;50.080;14.418;2022-09-17T06:47:55;98601.25;;;11.36;66.22
73633;BME280;61927;50.080;14.418;2022-09-17T06:50:21;98624.78;;;11.29;66.06
73633;BME280;61927;50.080;14.418;2022-09-17T06:52:53;98621.06;;;11.32;66.30
73633;BME280;61927;50.080;14.418;2022-09-17T06:55:19;98610.91;;;11.37;66.46
73633;BME280;61927;50.080;14.418;2022-09-17T06:57:45;98614.78;;;11.44;66.98
73633;BME280;61927;50.080;14.418;2022-09-17T07:00:12;98621.91;;;11.55;66.77
73633;BME280;61927;50.080;14.418;2022-09-17T07:02:37;98613.09;;;11.54;66.71
73633;BME280;61927;50.080;14.418;2022-09-17T07:05:03;98626.13;;;11.57;66.67
73633;BME280;61927;50.080;14.418;2022-09-17T07:07:29;98628.31;;;11.63;66.44
73633;BME280;61927;50.080;14.418;2022-09-17T07:09:55;98634.47;;;11.64;66.27
73633;BME280;61927;50.080;14.418;2022-09-17T07:12:21;98633.63;;;11.63;65.99
73633;BME280;61927;50.080;14.418;2022-09-17T07:14:46;98634.34;;;11.65;65.71
73633;BME280;61927;50.080;14.418;2022-09-17T07:17:13;98641.22;;;11.68;65.23
73633;BME280;61927;50.080;14.418;2022-09-17T07:19:39;98623.22;;;11.72;65.60
73633;BME280;61927;50.080;14.418;2022-09-17T07:22:04;98622.38;;;11.71;65.14
73633;BME280;61927;50.080;14.418;2022-09-17T07:24:30;98628.31;;;11.75;65.45
73633;BME280;61927;50.080;14.418;2022-09-17T07:26:55;98627.34;;;11.87;64.87
73633;BME280;61927;50.080;14.418;2022-09-17T07:29:21;98629.03;;;11.88;64.84
73633;BME280;61927;50.080;14.418;2022-09-17T07:31:51;98634.34;;;11.88;64.80
73633;BME280;61927;50.080;14.418;2022-09-17T07:34:16;98634.00;;;11.92;65.07
73633;BME280;61927;50.080;14.418;2022-09-17T07:36:42;98625.78;;;11.95;64.60
73633;BME280;61927;50.080;14.418;2022-09-17T07:39:08;98636.03;;;12.00;65.05
73633;BME280;61927;50.080;14.418;2022-09-17T07:41:35;98627.69;;;12.05;64.75
73633;BME280;61927;50.080;14.418;2022-09-17T07:44:00;98613.38;;;12.17;64.74
73633;BME280;61927;50.080;14.418;2022-09-17T07:46:27;98605.50;;;12.26;64.33
73633;BME280;61927;50.080;14.418;2022-09-17T07:48:52;98599.56;;;12.34;63.96
73633;BME280;61927;50.080;14.418;2022-09-17T07:51:20;98602.81;;;12.38;63.51
73633;BME280;61927;50.080;14.418;2022-09-17T07:53:56;98606.78;;;12.43;63.92
73633;BME280;61927;50.080;14.418;2022-09-17T07:56:23;98594.97;;;12.57;63.08
73633;BME280;61927;50.080;14.418;2022-09-17T07:58:49;98604.41;;;12.61;62.72
73633;BME280;61927;50.080;14.418;2022-09-17T08:01:16;98589.34;;;12.71;62.08
73633;BME280;61927;50.080;14.418;2022-09-17T08:03:46;98586.28;;;12.76;62.48
73633;BME280;61927;50.080;14.418;2022-09-17T08:06:14;98573.31;;;12.82;62.39
73633;BME280;61927;50.080;14.418;2022-09-17T08:08:40;98573.63;;;12.89;61.68
73633;BME280;61927;50.080;14.418;2022-09-17T08:11:14;98574.34;;;12.91;62.06
73633;BME280;61927;50.080;14.418;2022-09-17T08:13:40;98566.09;;;12.94;61.44
73633;BME280;61927;50.080;14.418;2022-09-17T08:16:11;98560.25;;;13.00;61.38
73633;BME280;61927;50.080;14.418;2022-09-17T08:18:41;98560.56;;;13.07;61.28
73633;BME280;61927;50.080;14.418;2022-09-17T08:21:11;98560.88;;;13.13;60.87
73633;BME280;61927;50.080;14.418;2022-09-17T08:23:38;98561.28;;;13.09;61.11
73633;BME280;61927;50.080;14.418;2022-09-17T08:26:06;98547.13;;;13.08;61.02
73633;BME280;61927;50.080;14.418;2022-09-17T08:28:33;98558.81;;;13.17;61.08
73633;BME280;61927;50.080;14.418;2022-09-17T08:31:01;98563.34;;;13.26;61.37
73633;BME280;61927;50.080;14.418;2022-09-17T08:33:33;98567.84;;;13.25;60.69
73633;BME280;61927;50.080;14.418;2022-09-17T08:35:59;98573.56;;;13.21;61.00
73633;BME280;61927;50.080;14.418;2022-09-17T08:38:26;98574.53;;;13.20;60.86
73633;BME280;61927;50.080;14.418;2022-09-17T08:46:47;98584.25;;;13.31;60.53
73633;BME280;61927;50.080;14.418;2022-09-17T08:49:34;98588.22;;;13.36;60.40
73633;BME280;61927;50.080;14.418;2022-09-17T08:52:13;98597.59;;;13.31;60.67
73633;BME280;61927;50.080;14.418;2022-09-17T08:54:57;98606.94;;;13.25;60.39
73633;BME280;61927;50.080;14.418;2022-09-17T08:57:36;98609.66;;;13.14;60.98
73633;BME280;61927;50.080;14.418;2022-09-17T09:00:13;98601.66;;;13.14;61.54
73633;BME280;61927;50.080;14.418;2022-09-17T09:05:51;98615.06;;;13.23;61.38
73633;BME280;61927;50.080;14.418;2022-09-17T09:08:25;98628.13;;;13.27;61.31
73633;BME280;61927;50.080;14.418;2022-09-17T09:10:56;98623.97;;;13.13;61.99
73633;BME280;61927;50.080;14.418;2022-09-17T09:13:28;98620.13;;;13.06;62.67
73633;BME280;61927;50.080;14.418;2022-09-17T09:16:01;98619.69;;;13.01;63.26
73633;BME280;61927;50.080;14.418;2022-09-17T09:18:29;98636.44;;;12.91;65.21
73633;BME280;61927;50.080;14.418;2022-09-17T09:24:24;98661.97;;;12.62;67.50
73633;BME280;61927;50.080;14.418;2022-09-17T09:27:13;98678.75;;;12.31;68.53
73633;BME280;61927;50.080;14.418;2022-09-17T09:29:52;98680.88;;;11.93;71.37
73633;BME280;61927;50.080;14.418;2022-09-17T09:34:53;98681.25;;;11.89;72.33
73633;BME280;61927;50.080;14.418;2022-09-17T09:37:30;98683.41;;;11.95;73.17
73633;BME280;61927;50.080;14.418;2022-09-17T09:40:21;98678.69;;;11.99;73.98
73633;BME280;61927;50.080;14.418;2022-09-17T09:42:47;98686.78;;;11.97;73.23
73633;BME280;61927;50.080;14.418;2022-09-17T09:45:17;98697.91;;;11.91;72.50
73633;BME280;61927;50.080;14.418;2022-09-17T09:47:56;98688.63;;;11.85;73.95
73633;BME280;61927;50.080;14.418;2022-09-17T09:53:06;98696.09;;;11.80;75.13
73633;BME280;61927;50.080;14.418;2022-09-17T09:55:41;98692.97;;;11.86;75.01
73633;BME280;61927;50.080;14.418;2022-09-17T09:58:23;98686.44;;;11.90;75.07
73633;BME280;61927;50.080;14.418;2022-09-17T10:00:53;98688.00;;;11.93;73.92
73633;BME280;61927;50.080;14.418;2022-09-17T10:03:21;98683.28;;;11.96;74.18
73633;BME280;61927;50.080;14.418;2022-09-17T10:05:58;98674.81;;;12.03;74.01
73633;BME280;61927;50.080;14.418;2022-09-17T10:08:27;98674.44;;;12.07;73.30
73633;BME280;61927;50.080;14.418;2022-09-17T10:11:00;98671.06;;;12.16;73.01
73633;BME280;61927;50.080;14.418;2022-09-17T10:13:29;98665.84;;;12.26;72.78
73633;BME280;61927;50.080;14.418;2022-09-17T10:15:55;98669.31;;;12.38;72.24
73633;BME280;61927;50.080;14.418;2022-09-17T10:18:23;98662.28;;;12.48;71.92
73633;BME280;61927;50.080;14.418;2022-09-17T10:20:50;98663.06;;;12.59;71.24
73633;BME280;61927;50.080;14.418;2022-09-17T10:23:16;98662.66;;;12.75;70.90
73633;BME280;61927;50.080;14.418;2022-09-17T10:25:42;98658.97;;;12.87;70.57
73633;BME280;61927;50.080;14.418;2022-09-17T10:28:29;98659.22;;;13.05;71.02
73633;BME280;61927;50.080;14.418;2022-09-17T10:31:02;98655.31;;;13.20;70.17
73633;BME280;61927;50.080;14.418;2022-09-17T10:33:30;98650.28;;;13.27;69.92
73633;BME280;61927;50.080;14.418;2022-09-17T10:36:05;98651.00;;;13.29;69.30
73633;BME280;61927;50.080;14.418;2022-09-17T10:38:41;98651.59;;;13.33;68.13
73633;BME280;61927;50.080;14.418;2022-09-17T10:41:20;98655.59;;;13.48;69.42
73633;BME280;61927;50.080;14.418;2022-09-17T10:43:50;98636.47;;;13.64;68.79
73633;BME280;61927;50.080;14.418;2022-09-17T10:46:18;98637.50;;;13.82;67.98
73633;BME280;61927;50.080;14.418;2022-09-17T10:48:56;98624.78;;;13.95;67.43
73633;BME280;61927;50.080;14.418;2022-09-17T10:51:24;98615.09;;;13.94;66.86
73633;BME280;61927;50.080;14.418;2022-09-17T10:56:58;98618.88;;;13.92;66.97
73633;BME280;61927;50.080;14.418;2022-09-17T11:05:19;98616.00;;;14.23;65.79
73633;BME280;61927;50.080;14.418;2022-09-17T11:07:52;98622.44;;;14.21;65.27
73633;BME280;61927;50.080;14.418;2022-09-17T11:10:34;98622.13;;;13.95;64.51
73633;BME280;61927;50.080;14.418;2022-09-17T11:18:38;98618.41;;;13.77;65.06
73633;BME280;61927;50.080;14.418;2022-09-17T11:21:12;98624.19;;;13.92;65.74
73633;BME280;61927;50.080;14.418;2022-09-17T11:26:35;98636.78;;;14.20;62.61
73633;BME280;61927;50.080;14.418;2022-09-17T11:32:09;98619.94;;;14.29;63.00
73633;BME280;61927;50.080;14.418;2022-09-17T11:34:53;98617.56;;;14.36;63.70
73633;BME280;61927;50.080;14.418;2022-09-17T11:37:25;98612.41;;;14.53;63.59
73633;BME280;61927;50.080;14.418;2022-09-17T11:39:57;98609.31;;;14.58;62.32
73633;BME280;61927;50.080;14.418;2022-09-17T11:42:29;98599.75;;;14.56;62.31
73633;BME280;61927;50.080;14.418;2022-09-17T11:45:03;98600.75;;;14.54;62.85
73633;BME280;61927;50.080;14.418;2022-09-17T11:47:34;98601.72;;;14.53;63.13
73633;BME280;61927;50.080;14.418;2022-09-17T11:50:06;98605.38;;;14.52;63.17
73633;BME280;61927;50.080;14.418;2022-09-17T11:52:44;98599.47;;;14.49;63.23
73633;BME280;61927;50.080;14.418;2022-09-17T11:55:28;98606.31;;;14.22;62.94
73633;BME280;61927;50.080;14.418;2022-09-17T11:57:59;98606.41;;;14.02;64.67
73633;BME280;61927;50.080;14.418;2022-09-17T12:00:29;98604.16;;;13.97;66.47
73633;BME280;61927;50.080;14.418;2022-09-17T12:03:01;98608.03;;;13.83;66.15
73633;BME280;61927;50.080;14.418;2022-09-17T12:05:56;98588.81;;;13.80;67.29
73633;BME280;61927;50.080;14.418;2022-09-17T12:08:43;98576.63;;;13.87;66.17
73633;BME280;61927;50.080;14.418;2022-09-17T12:14:22;98567.25;;;14.02;66.14
73633;BME280;61927;50.080;14.418;2022-09-17T12:16:54;98568.63;;;13.97;66.81
73633;BME280;61927;50.080;14.418;2022-09-17T12:22:00;98572.53;;;13.83;65.94
73633;BME280;61927;50.080;14.418;2022-09-17T12:24:29;98573.38;;;13.83;66.68
73633;BME280;61927;50.080;14.418;2022-09-17T12:27:35;98558.94;;;13.86;66.60
73633;BME280;61927;50.080;14.418;2022-09-17T12:52:24;98548.16;;;14.36;63.58
73633;BME280;61927;50.080;14.418;2022-09-17T13:01:00;98530.13;;;13.70;67.68
73633;BME280;61927;50.080;14.418;2022-09-17T13:03:32;98526.63;;;13.70;64.96
73633;BME280;61927;50.080;14.418;2022-09-17T13:09:31;98523.97;;;13.79;66.68
73633;BME280;61927;50.080;14.418;2022-09-17T13:12:06;98524.09;;;13.78;65.45
73633;BME280;61927;50.080;14.418;2022-09-17T13:14:55;98535.91;;;13.85;66.45
73633;BME280;61927;50.080;14.418;2022-09-17T13:22:49;98527.91;;;13.95;63.49
73633;BME280;61927;50.080;14.418;2022-09-17T13:25:18;98533.25;;;14.04;63.01
73633;BME280;61927;50.080;14.418;2022-09-17T13:27:45;98532.00;;;13.99;62.22
73633;BME280;61927;50.080;14.418;2022-09-17T13:30:15;98526.09;;;13.85;62.07
73633;BME280;61927;50.080;14.418;2022-09-17T13:32:45;98522.97;;;13.71;59.95
73633;BME280;61927;50.080;14.418;2022-09-17T13:40:30;98530.28;;;13.78;60.13
73633;BME280;61927;50.080;14.418;2022-09-17T13:43:07;98534.22;;;13.84;61.47
73633;BME280;61927;50.080;14.418;2022-09-17T13:48:28;98520.47;;;13.88;59.76
73633;BME280;61927;50.080;14.418;2022-09-17T13:50:55;98524.56;;;14.02;60.76
73633;BME280;61927;50.080;14.418;2022-09-17T13:53:24;98522.59;;;14.04;58.20
73633;BME280;61927;50.080;14.418;2022-09-17T13:56:27;98525.41;;;14.03;57.06
73633;BME280;61927;50.080;14.418;2022-09-17T13:58:53;98520.06;;;14.12;56.83
73633;BME280;61927;50.080;14.418;2022-09-17T14:01:56;98519.22;;;14.21;55.72
73633;BME280;61927;50.080;14.418;2022-09-17T14:04:32;98524.00;;;14.28;55.27
73633;BME280;61927;50.080;14.418;2022-09-17T14:06:58;98524.72;;;14.30;52.24
73633;BME280;61927;50.080;14.418;2022-09-17T14:09:33;98522.31;;;14.27;52.10
73633;BME280;61927;50.080;14.418;2022-09-17T14:11:59;98520.22;;;14.30;52.85
73633;BME280;61927;50.080;14.418;2022-09-17T14:14:40;98518.81;;;14.36;52.44
73633;BME280;61927;50.080;14.418;2022-09-17T14:17:10;98531.16;;;14.27;50.14
73633;BME280;61927;50.080;14.418;2022-09-17T14:19:49;98525.00;;;14.36;51.43
73633;BME280;61927;50.080;14.418;2022-09-17T14:22:23;98532.03;;;14.47;50.79
73633;BME280;61927;50.080;14.418;2022-09-17T14:24:51;98531.44;;;14.34;50.78
73633;BME280;61927;50.080;14.418;2022-09-17T14:30:17;98540.03;;;14.47;52.19
73633;BME280;61927;50.080;14.418;2022-09-17T14:37:58;98536.94;;;14.51;51.85
73633;BME280;61927;50.080;14.418;2022-09-17T14:40:25;98531.34;;;14.45;50.99
73633;BME280;61927;50.080;14.418;2022-09-17T14:42:55;98532.56;;;14.31;51.40
73633;BME280;61927;50.080;14.418;2022-09-17T14:45:30;98534.28;;;14.42;51.13
73633;BME280;61927;50.080;14.418;2022-09-17T14:48:16;98544.41;;;14.48;50.47
73633;BME280;61927;50.080;14.418;2022-09-17T14:50:42;98555.34;;;14.45;49.45
73633;BME280;61927;50.080;14.418;2022-09-17T14:53:14;98540.19;;;14.45;49.83
73633;BME280;61927;50.080;14.418;2022-09-17T14:55:43;98550.16;;;14.43;49.99
73633;BME280;61927;50.080;14.418;2022-09-17T14:58:31;98552.66;;;14.35;50.49
73633;BME280;61927;50.080;14.418;2022-09-17T15:00:58;98555.59;;;14.32;50.89
73633;BME280;61927;50.080;14.418;2022-09-17T15:03:24;98545.91;;;14.31;50.22
73633;BME280;61927;50.080;14.418;2022-09-17T15:05:50;98545.63;;;14.25;50.13
73633;BME280;61927;50.080;14.418;2022-09-17T15:08:21;98564.59;;;14.21;50.26
73633;BME280;61927;50.080;14.418;2022-09-17T15:11:02;98557.41;;;14.12;50.75
73633;BME280;61927;50.080;14.418;2022-09-17T15:13:31;98560.78;;;14.05;51.01
73633;BME280;61927;50.080;14.418;2022-09-17T15:16:26;98549.69;;;14.00;51.53
73633;BME280;61927;50.080;14.418;2022-09-17T15:18:57;98565.00;;;14.07;52.06
73633;BME280;61927;50.080;14.418;2022-09-17T15:21:33;98573.84;;;14.08;50.86
73633;BME280;61927;50.080;14.418;2022-09-17T15:24:17;98574.25;;;13.94;50.71
73633;BME280;61927;50.080;14.418;2022-09-17T15:26:47;98567.75;;;13.86;50.99
73633;BME280;61927;50.080;14.418;2022-09-17T15:29:14;98577.47;;;13.97;50.81
73633;BME280;61927;50.080;14.418;2022-09-17T15:31:40;98572.13;;;13.97;50.48